sensor_id;sensor_type;location;lat;lon;timestamp;pressure;altitude;pressure_sealevel;temperature;humidity
37202;BME280;37799;52.390;6.136;2023-06-26T00:01:59;101167.53;;;21.41;100.00
37202;BME280;37799;52.390;6.136;2023-06-26T00:04:25;101167.06;;;21.35;100.00
37202;BME280;37799;52.390;6.136;2023-06-26T00:06:50;101163.44;;;21.23;100.00
37202;BME280;37799;52.390;6.136;2023-06-26T00:09:15;101162.78;;;21.19;100.00
37202;BME280;37799;52.390;6.136;2023-06-26T00:11:41;101162.34;;;21.13;100.00
37202;BME280;37799;52.390;6.136;2023-06-26T00:14:06;101164.50;;;21.06;100.00
37202;BME280;37799;52.390;6.136;2023-06-26T00:16:32;101159.44;;;21.03;100.00
37202;BME280;37799;52.390;6.136;2023-06-26T00:18:57;101154.19;;;21.03;100.00
37202;BME280;37799;52.390;6.136;2023-06-26T00:21:24;101152.50;;;21.02;100.00
37202;BME280;37799;52.390;6.136;2023-06-26T00:23:50;101144.97;;;20.96;100.00
37202;BME280;37799;52.390;6.136;2023-06-26T00:26:15;101134.66;;;20.93;100.00
37202;BME280;37799;52.390;6.136;2023-06-26T00:28:41;101142.75;;;20.90;100.00
37202;BME280;37799;52.390;6.136;2023-06-26T00:31:06;101133.38;;;20.86;100.00
37202;BME280;37799;52.390;6.136;2023-06-26T00:33:31;101130.00;;;20.84;100.00
37202;BME280;37799;52.390;6.136;2023-06-26T00:35:57;101127.53;;;20.81;100.00
37202;BME280;37799;52.390;6.136;2023-06-26T00:38:22;101123.22;;;20.80;100.00
37202;BME280;37799;52.390;6.136;2023-06-26T00:40:47;101119.97;;;20.76;100.00
37202;BME280;37799;52.390;6.136;2023-06-26T00:43:13;101121.22;;;20.71;100.00
37202;BME280;37799;52.390;6.136;2023-06-26T00:45:38;101111.41;;;20.73;100.00
37202;BME280;37799;52.390;6.136;2023-06-26T00:48:04;101116.28;;;20.79;100.00
37202;BME280;37799;52.390;6.136;2023-06-26T00:50:30;101121.34;;;20.82;100.00
37202;BME280;37799;52.390;6.136;2023-06-26T00:52:56;101124.75;;;20.84;100.00
37202;BME280;37799;52.390;6.136;2023-06-26T00:55:28;101112.97;;;20.89;100.00
37202;BME280;37799;52.390;6.136;2023-06-26T00:57:55;101103.28;;;20.90;100.00
37202;BME280;37799;52.390;6.136;2023-06-26T01:00:20;101106.84;;;20.89;100.00
37202;BME280;37799;52.390;6.136;2023-06-26T01:02:46;101110.03;;;20.94;100.00
37202;BME280;37799;52.390;6.136;2023-06-26T01:05:12;101104.84;;;20.92;100.00
37202;BME280;37799;52.390;6.136;2023-06-26T01:07:38;101102.00;;;20.96;100.00
37202;BME280;37799;52.390;6.136;2023-06-26T01:10:06;101105.31;;;20.99;100.00
37202;BME280;37799;52.390;6.136;2023-06-26T01:12:32;101096.06;;;21.06;100.00
37202;BME280;37799;52.390;6.136;2023-06-26T01:14:59;101095.66;;;21.12;100.00
37202;BME280;37799;52.390;6.136;2023-06-26T01:17:27;101096.00;;;21.20;100.00
37202;BME280;37799;52.390;6.136;2023-06-26T01:20:00;101100.00;;;21.13;100.00
37202;BME280;37799;52.390;6.136;2023-06-26T01:25:29;101098.09;;;21.15;100.00
37202;BME280;37799;52.390;6.136;2023-06-26T01:28:04;101102.81;;;21.10;100.00
37202;BME280;37799;52.390;6.136;2023-06-26T01:30:31;101099.09;;;21.00;100.00
37202;BME280;37799;52.390;6.136;2023-06-26T01:32:58;101104.00;;;20.92;100.00
37202;BME280;37799;52.390;6.136;2023-06-26T01:35:23;101095.47;;;20.88;100.00
37202;BME280;37799;52.390;6.136;2023-06-26T01:37:49;101100.09;;;20.85;100.00
37202;BME280;37799;52.390;6.136;2023-06-26T01:40:14;101088.91;;;20.81;100.00
37202;BME280;37799;52.390;6.136;2023-06-26T01:42:39;101084.94;;;20.88;100.00
37202;BME280;37799;52.390;6.136;2023-06-26T01:45:11;101090.41;;;20.85;100.00
37202;BME280;37799;52.390;6.136;2023-06-26T01:47:40;101089.97;;;20.79;100.00
37202;BME280;37799;52.390;6.136;2023-06-26T01:50:16;101093.16;;;20.70;100.00
37202;BME280;37799;52.390;6.136;2023-06-26T01:58:07;101098.47;;;20.55;100.00
37202;BME280;37799;52.390;6.136;2023-06-26T02:00:33;101097.19;;;20.48;100.00
37202;BME280;37799;52.390;6.136;2023-06-26T02:02:59;101097.94;;;20.50;100.00
37202;BME280;37799;52.390;6.136;2023-06-26T02:05:25;101098.88;;;20.49;100.00
37202;BME280;37799;52.390;6.136;2023-06-26T02:07:50;101101.59;;;20.48;100.00
37202;BME280;37799;52.390;6.136;2023-06-26T02:10:17;101099.06;;;20.46;100.00
37202;BME280;37799;52.390;6.136;2023-06-26T02:12:42;101095.50;;;20.47;100.00
37202;BME280;37799;52.390;6.136;2023-06-26T02:15:08;101099.81;;;20.48;100.00
37202;BME280;37799;52.390;6.136;2023-06-26T02:17:33;101113.72;;;20.50;100.00
37202;BME280;37799;52.390;6.136;2023-06-26T02:19:59;101114.66;;;20.49;100.00
37202;BME280;37799;52.390;6.136;2023-06-26T02:22:24;101103.94;;;20.52;100.00
37202;BME280;37799;52.390;6.136;2023-06-26T02:24:50;101109.94;;;20.54;100.00
37202;BME280;37799;52.390;6.136;2023-06-26T02:27:15;101112.19;;;20.60;100.00
37202;BME280;37799;52.390;6.136;2023-06-26T02:29:41;101104.63;;;20.69;100.00
37202;BME280;37799;52.390;6.136;2023-06-26T02:32:07;101113.28;;;20.85;100.00
37202;BME280;37799;52.390;6.136;2023-06-26T02:34:32;101107.22;;;20.97;100.00
37202;BME280;37799;52.390;6.136;2023-06-26T02:36:58;101112.69;;;21.07;100.00
37202;BME280;37799;52.390;6.136;2023-06-26T02:39:25;101107.88;;;21.13;100.00
37202;BME280;37799;52.390;6.136;2023-06-26T02:41:51;101106.94;;;21.14;100.00
37202;BME280;37799;52.390;6.136;2023-06-26T02:44:16;101119.38;;;21.12;100.00
37202;BME280;37799;52.390;6.136;2023-06-26T02:46:41;101111.25;;;21.15;100.00
37202;BME280;37799;52.390;6.136;2023-06-26T02:49:07;101113.88;;;21.15;100.00
37202;BME280;37799;52.390;6.136;2023-06-26T02:51:33;101103.34;;;21.15;100.00
37202;BME280;37799;52.390;6.136;2023-06-26T02:53:58;101110.53;;;21.13;100.00
37202;BME280;37799;52.390;6.136;2023-06-26T02:56:24;101106.31;;;21.11;100.00
37202;BME280;37799;52.390;6.136;2023-06-26T02:58:54;101118.06;;;21.05;100.00
37202;BME280;37799;52.390;6.136;2023-06-26T03:01:19;101108.78;;;21.00;100.00
37202;BME280;37799;52.390;6.136;2023-06-26T03:03:45;101111.91;;;20.92;100.00
37202;BME280;37799;52.390;6.136;2023-06-26T03:06:12;101127.91;;;20.89;100.00
37202;BME280;37799;52.390;6.136;2023-06-26T03:08:37;101124.75;;;20.84;100.00
37202;BME280;37799;52.390;6.136;2023-06-26T03:11:05;101135.06;;;20.87;100.00
37202;BME280;37799;52.390;6.136;2023-06-26T03:13:30;101139.69;;;20.83;100.00
37202;BME280;37799;52.390;6.136;2023-06-26T03:15:56;101138.19;;;20.79;100.00
37202;BME280;37799;52.390;6.136;2023-06-26T03:18:21;101142.78;;;20.76;100.00
37202;BME280;37799;52.390;6.136;2023-06-26T03:20:46;101136.78;;;20.74;100.00
37202;BME280;37799;52.390;6.136;2023-06-26T03:23:13;101138.22;;;20.65;100.00
37202;BME280;37799;52.390;6.136;2023-06-26T03:25:38;101138.41;;;20.62;100.00
37202;BME280;37799;52.390;6.136;2023-06-26T03:28:04;101132.31;;;20.61;100.00
37202;BME280;37799;52.390;6.136;2023-06-26T03:30:29;101135.13;;;20.58;100.00
37202;BME280;37799;52.390;6.136;2023-06-26T03:32:54;101132.66;;;20.55;100.00
37202;BME280;37799;52.390;6.136;2023-06-26T03:35:20;101128.19;;;20.57;100.00
37202;BME280;37799;52.390;6.136;2023-06-26T03:37:45;101130.97;;;20.54;100.00
37202;BME280;37799;52.390;6.136;2023-06-26T03:40:10;101136.25;;;20.54;100.00
37202;BME280;37799;52.390;6.136;2023-06-26T03:42:36;101135.88;;;20.60;100.00
37202;BME280;37799;52.390;6.136;2023-06-26T03:45:01;101135.97;;;20.59;100.00
37202;BME280;37799;52.390;6.136;2023-06-26T03:47:27;101131.16;;;20.66;100.00
37202;BME280;37799;52.390;6.136;2023-06-26T03:49:52;101133.41;;;20.72;100.00
37202;BME280;37799;52.390;6.136;2023-06-26T03:52:17;101129.09;;;20.71;100.00
37202;BME280;37799;52.390;6.136;2023-06-26T03:54:43;101135.47;;;20.67;100.00
37202;BME280;37799;52.390;6.136;2023-06-26T03:57:08;101143.28;;;20.68;100.00
37202;BME280;37799;52.390;6.136;2023-06-26T03:59:33;101138.94;;;20.67;100.00
37202;BME280;37799;52.390;6.136;2023-06-26T04:01:59;101142.31;;;20.69;100.00
37202;BME280;37799;52.390;6.136;2023-06-26T04:04:24;101147.47;;;20.85;100.00
37202;BME280;37799;52.390;6.136;2023-06-26T04:06:49;101159.31;;;20.78;100.00
37202;BME280;37799;52.390;6.136;2023-06-26T04:09:16;101159.63;;;20.73;100.00
37202;BME280;37799;52.390;6.136;2023-06-26T04:11:42;101157.28;;;20.69;100.00
37202;BME280;37799;52.390;6.136;2023-06-26T04:14:07;101160.00;;;20.67;100.00
37202;BME280;37799;52.390;6.136;2023-06-26T04:16:32;101158.50;;;20.63;100.00
37202;BME280;37799;52.390;6.136;2023-06-26T04:18:58;101158.78;;;20.73;100.00
37202;BME280;37799;52.390;6.136;2023-06-26T04:21:23;101169.88;;;20.64;100.00
37202;BME280;37799;52.390;6.136;2023-06-26T04:23:51;101169.03;;;20.63;100.00
37202;BME280;37799;52.390;6.136;2023-06-26T04:26:17;101182.09;;;20.65;100.00
37202;BME280;37799;52.390;6.136;2023-06-26T04:28:42;101182.56;;;20.71;100.00
37202;BME280;37799;52.390;6.136;2023-06-26T04:31:08;101182.81;;;20.81;100.00
37202;BME280;37799;52.390;6.136;2023-06-26T04:33:34;101179.91;;;20.85;100.00
37202;BME280;37799;52.390;6.136;2023-06-26T04:36:04;101188.81;;;20.97;100.00
37202;BME280;37799;52.390;6.136;2023-06-26T04:38:34;101193.94;;;21.13;100.00
37202;BME280;37799;52.390;6.136;2023-06-26T04:41:01;101190.03;;;21.33;100.00
37202;BME280;37799;52.390;6.136;2023-06-26T04:43:26;101181.38;;;21.31;100.00
37202;BME280;37799;52.390;6.136;2023-06-26T04:45:52;101194.78;;;21.28;100.00
37202;BME280;37799;52.390;6.136;2023-06-26T04:48:17;101199.28;;;21.26;100.00
37202;BME280;37799;52.390;6.136;2023-06-26T04:50:42;101209.22;;;21.20;100.00
37202;BME280;37799;52.390;6.136;2023-06-26T04:53:08;101210.47;;;21.29;100.00
37202;BME280;37799;52.390;6.136;2023-06-26T04:55:35;101203.63;;;21.12;100.00
37202;BME280;37799;52.390;6.136;2023-06-26T04:58:00;101203.84;;;20.95;100.00
37202;BME280;37799;52.390;6.136;2023-06-26T05:00:25;101198.44;;;20.84;100.00
37202;BME280;37799;52.390;6.136;2023-06-26T05:02:51;101200.28;;;20.82;100.00
37202;BME280;37799;52.390;6.136;2023-06-26T05:05:28;101204.44;;;20.86;100.00
37202;BME280;37799;52.390;6.136;2023-06-26T05:07:55;101204.63;;;20.83;100.00
37202;BME280;37799;52.390;6.136;2023-06-26T05:10:21;101222.03;;;20.85;100.00
37202;BME280;37799;52.390;6.136;2023-06-26T05:12:46;101225.31;;;20.89;100.00
37202;BME280;37799;52.390;6.136;2023-06-26T05:15:11;101227.47;;;20.97;100.00
37202;BME280;37799;52.390;6.136;2023-06-26T05:17:37;101239.94;;;20.93;100.00
37202;BME280;37799;52.390;6.136;2023-06-26T05:20:02;101236.78;;;20.88;100.00
37202;BME280;37799;52.390;6.136;2023-06-26T05:22:29;101240.34;;;20.87;100.00
37202;BME280;37799;52.390;6.136;2023-06-26T05:24:55;101246.75;;;20.97;100.00
37202;BME280;37799;52.390;6.136;2023-06-26T05:27:23;101256.84;;;21.17;100.00
37202;BME280;37799;52.390;6.136;2023-06-26T05:29:49;101257.59;;;21.19;100.00
37202;BME280;37799;52.390;6.136;2023-06-26T05:32:16;101262.69;;;21.23;100.00
37202;BME280;37799;52.390;6.136;2023-06-26T05:34:47;101254.50;;;21.27;100.00
37202;BME280;37799;52.390;6.136;2023-06-26T05:37:19;101263.09;;;21.70;100.00
37202;BME280;37799;52.390;6.136;2023-06-26T05:39:45;101268.31;;;22.37;100.00
37202;BME280;37799;52.390;6.136;2023-06-26T05:42:11;101269.88;;;23.27;100.00
37202;BME280;37799;52.390;6.136;2023-06-26T05:44:37;101273.41;;;23.99;100.00
37202;BME280;37799;52.390;6.136;2023-06-26T05:47:02;101275.09;;;24.58;100.00
37202;BME280;37799;52.390;6.136;2023-06-26T05:49:28;101278.50;;;25.05;100.00
37202;BME280;37799;52.390;6.136;2023-06-26T05:51:56;101287.59;;;25.34;100.00
37202;BME280;37799;52.390;6.136;2023-06-26T05:54:23;101285.97;;;25.54;100.00
37202;BME280;37799;52.390;6.136;2023-06-26T05:56:52;101294.97;;;25.74;100.00
37202;BME280;37799;52.390;6.136;2023-06-26T05:59:20;101314.38;;;26.06;100.00
37202;BME280;37799;52.390;6.136;2023-06-26T06:01:45;101318.31;;;26.12;100.00
37202;BME280;37799;52.390;6.136;2023-06-26T06:04:10;101321.53;;;26.48;99.79
37202;BME280;37799;52.390;6.136;2023-06-26T06:06:36;101315.59;;;26.65;94.30
37202;BME280;37799;52.390;6.136;2023-06-26T06:09:01;101330.41;;;26.88;87.34
37202;BME280;37799;52.390;6.136;2023-06-26T06:11:26;101332.66;;;27.33;83.26
37202;BME280;37799;52.390;6.136;2023-06-26T06:13:52;101342.34;;;27.44;84.52
37202;BME280;37799;52.390;6.136;2023-06-26T06:16:17;101347.34;;;27.68;81.04
37202;BME280;37799;52.390;6.136;2023-06-26T06:18:43;101339.25;;;26.98;79.04
37202;BME280;37799;52.390;6.136;2023-06-26T06:21:08;101346.34;;;27.19;78.90
37202;BME280;37799;52.390;6.136;2023-06-26T06:23:33;101355.84;;;27.21;74.90
37202;BME280;37799;52.390;6.136;2023-06-26T06:25:59;101353.91;;;27.14;72.45
37202;BME280;37799;52.390;6.136;2023-06-26T06:28:24;101361.50;;;27.28;68.24
37202;BME280;37799;52.390;6.136;2023-06-26T06:30:50;101371.84;;;27.00;68.17
37202;BME280;37799;52.390;6.136;2023-06-26T06:33:15;101380.72;;;27.41;69.31
37202;BME280;37799;52.390;6.136;2023-06-26T06:35:40;101378.47;;;27.46;64.33
37202;BME280;37799;52.390;6.136;2023-06-26T06:38:06;101381.09;;;27.67;64.79
37202;BME280;37799;52.390;6.136;2023-06-26T06:40:31;101378.94;;;27.61;66.75
37202;BME280;37799;52.390;6.136;2023-06-26T06:42:57;101394.69;;;27.93;63.28
37202;BME280;37799;52.390;6.136;2023-06-26T06:45:22;101401.16;;;28.10;62.02
37202;BME280;37799;52.390;6.136;2023-06-26T06:47:47;101400.31;;;28.09;62.87
37202;BME280;37799;52.390;6.136;2023-06-26T06:50:13;101402.41;;;28.25;61.05
37202;BME280;37799;52.390;6.136;2023-06-26T06:52:42;101406.22;;;28.03;61.54
37202;BME280;37799;52.390;6.136;2023-06-26T06:55:08;101402.16;;;28.18;62.83
37202;BME280;37799;52.390;6.136;2023-06-26T06:57:35;101409.44;;;28.45;62.15
37202;BME280;37799;52.390;6.136;2023-06-26T07:00:12;101414.34;;;28.60;63.06
37202;BME280;37799;52.390;6.136;2023-06-26T07:02:45;101415.47;;;28.57;60.89
37202;BME280;37799;52.390;6.136;2023-06-26T07:05:11;101423.00;;;28.71;59.55
37202;BME280;37799;52.390;6.136;2023-06-26T07:07:38;101431.19;;;28.41;58.70
37202;BME280;37799;52.390;6.136;2023-06-26T07:10:06;101427.38;;;28.14;58.21
37202;BME280;37799;52.390;6.136;2023-06-26T07:12:32;101428.91;;;28.07;56.74
37202;BME280;37799;52.390;6.136;2023-06-26T07:14:59;101427.78;;;28.10;57.83
37202;BME280;37799;52.390;6.136;2023-06-26T07:17:25;101433.97;;;28.49;59.14
37202;BME280;37799;52.390;6.136;2023-06-26T07:19:51;101435.66;;;28.60;57.86
37202;BME280;37799;52.390;6.136;2023-06-26T07:22:16;101438.50;;;28.39;57.63
37202;BME280;37799;52.390;6.136;2023-06-26T07:24:41;101443.22;;;28.64;58.72
37202;BME280;37799;52.390;6.136;2023-06-26T07:27:07;101436.91;;;28.65;58.73
37202;BME280;37799;52.390;6.136;2023-06-26T07:29:32;101448.66;;;28.82;57.42
37202;BME280;37799;52.390;6.136;2023-06-26T07:31:58;101454.97;;;28.91;58.97
37202;BME280;37799;52.390;6.136;2023-06-26T07:34:23;101452.75;;;28.96;59.07
37202;BME280;37799;52.390;6.136;2023-06-26T07:36:49;101465.09;;;28.58;58.94
37202;BME280;37799;52.390;6.136;2023-06-26T07:39:14;101463.72;;;28.54;59.23
37202;BME280;37799;52.390;6.136;2023-06-26T07:41:39;101457.06;;;28.00;61.99
37202;BME280;37799;52.390;6.136;2023-06-26T07:44:05;101464.13;;;27.71;64.76
37202;BME280;37799;52.390;6.136;2023-06-26T07:46:30;101469.34;;;27.21;68.64
37202;BME280;37799;52.390;6.136;2023-06-26T07:48:55;101470.25;;;26.89;72.58
37202;BME280;37799;52.390;6.136;2023-06-26T07:51:21;101460.50;;;26.37;74.06
37202;BME280;37799;52.390;6.136;2023-06-26T07:53:49;101465.53;;;26.08;78.34
37202;BME280;37799;52.390;6.136;2023-06-26T07:56:14;101468.47;;;25.82;78.68
37202;BME280;37799;52.390;6.136;2023-06-26T07:58:40;101472.06;;;25.48;81.58
37202;BME280;37799;52.390;6.136;2023-06-26T08:01:05;101477.03;;;25.41;87.93
37202;BME280;37799;52.390;6.136;2023-06-26T08:03:31;101484.38;;;25.94;81.82
37202;BME280;37799;52.390;6.136;2023-06-26T08:05:56;101479.59;;;26.63;80.76
37202;BME280;37799;52.390;6.136;2023-06-26T08:08:22;101472.72;;;27.53;73.18
37202;BME280;37799;52.390;6.136;2023-06-26T08:10:47;101491.19;;;28.45;66.06
37202;BME280;37799;52.390;6.136;2023-06-26T08:13:13;101489.47;;;29.02;62.64
37202;BME280;37799;52.390;6.136;2023-06-26T08:15:38;101495.38;;;29.05;58.81
37202;BME280;37799;52.390;6.136;2023-06-26T08:18:04;101494.41;;;28.97;57.89
37202;BME280;37799;52.390;6.136;2023-06-26T08:20:29;101508.84;;;28.75;61.71
37202;BME280;37799;52.390;6.136;2023-06-26T08:22:55;101511.09;;;28.79;58.49
37202;BME280;37799;52.390;6.136;2023-06-26T08:25:20;101506.59;;;28.90;58.11
37202;BME280;37799;52.390;6.136;2023-06-26T08:27:46;101502.41;;;28.97;58.42
37202;BME280;37799;52.390;6.136;2023-06-26T08:30:11;101503.28;;;29.34;57.04
37202;BME280;37799;52.390;6.136;2023-06-26T08:32:38;101495.38;;;29.05;57.42
37202;BME280;37799;52.390;6.136;2023-06-26T08:35:05;101504.91;;;29.18;60.38
37202;BME280;37799;52.390;6.136;2023-06-26T08:37:31;101511.66;;;28.54;58.19
37202;BME280;37799;52.390;6.136;2023-06-26T08:39:59;101505.66;;;27.92;62.48
37202;BME280;37799;52.390;6.136;2023-06-26T08:42:26;101507.59;;;28.60;63.32
37202;BME280;37799;52.390;6.136;2023-06-26T08:45:02;101523.16;;;28.64;58.35
37202;BME280;37799;52.390;6.136;2023-06-26T08:47:29;101526.25;;;29.08;56.94
37202;BME280;37799;52.390;6.136;2023-06-26T08:52:46;101520.47;;;29.22;55.36
37202;BME280;37799;52.390;6.136;2023-06-26T08:55:25;101527.09;;;28.60;58.34
37202;BME280;37799;52.390;6.136;2023-06-26T08:57:54;101523.75;;;28.87;58.54
37202;BME280;37799;52.390;6.136;2023-06-26T09:00:20;101528.38;;;28.95;56.42
37202;BME280;37799;52.390;6.136;2023-06-26T09:03:02;101536.34;;;28.85;58.29
37202;BME280;37799;52.390;6.136;2023-06-26T09:06:01;101529.31;;;28.45;59.79
37202;BME280;37799;52.390;6.136;2023-06-26T09:08:37;101527.78;;;28.82;58.90
37202;BME280;37799;52.390;6.136;2023-06-26T09:11:06;101523.16;;;28.64;59.94
37202;BME280;37799;52.390;6.136;2023-06-26T09:13:37;101530.75;;;28.78;58.06
37202;BME280;37799;52.390;6.136;2023-06-26T09:16:06;101536.91;;;28.79;57.96
37202;BME280;37799;52.390;6.136;2023-06-26T09:18:35;101531.28;;;29.21;55.83
37202;BME280;37799;52.390;6.136;2023-06-26T09:21:11;101536.69;;;29.48;51.37
37202;BME280;37799;52.390;6.136;2023-06-26T09:23:41;101551.88;;;30.12;49.49
37202;BME280;37799;52.390;6.136;2023-06-26T09:26:07;101553.19;;;29.99;49.69
37202;BME280;37799;52.390;6.136;2023-06-26T09:28:35;101551.69;;;29.59;51.09
37202;BME280;37799;52.390;6.136;2023-06-26T09:31:05;101556.97;;;30.06;50.69
37202;BME280;37799;52.390;6.136;2023-06-26T09:33:45;101562.44;;;30.04;51.80
37202;BME280;37799;52.390;6.136;2023-06-26T09:36:21;101570.13;;;29.80;50.11
37202;BME280;37799;52.390;6.136;2023-06-26T09:39:07;101568.91;;;29.08;50.47
37202;BME280;37799;52.390;6.136;2023-06-26T09:45:25;101561.22;;;27.55;56.02
37202;BME280;37799;52.390;6.136;2023-06-26T09:48:18;101563.78;;;27.15;59.13
37202;BME280;37799;52.390;6.136;2023-06-26T09:50:50;101563.66;;;26.85;60.19
37202;BME280;37799;52.390;6.136;2023-06-26T09:53:43;101565.41;;;26.74;61.41
37202;BME280;37799;52.390;6.136;2023-06-26T09:56:20;101571.16;;;26.48;64.16
37202;BME280;37799;52.390;6.136;2023-06-26T09:58:52;101570.44;;;26.78;62.16
37202;BME280;37799;52.390;6.136;2023-06-26T10:01:23;101574.28;;;27.38;54.47
37202;BME280;37799;52.390;6.136;2023-06-26T10:03:49;101569.47;;;28.13;56.10
37202;BME280;37799;52.390;6.136;2023-06-26T10:06:26;101579.69;;;29.16;52.06
37202;BME280;37799;52.390;6.136;2023-06-26T10:08:53;101583.16;;;29.92;44.43
37202;BME280;37799;52.390;6.136;2023-06-26T10:11:21;101589.28;;;30.12;43.73
37202;BME280;37799;52.390;6.136;2023-06-26T10:13:50;101585.13;;;30.45;44.02
37202;BME280;37799;52.390;6.136;2023-06-26T10:16:27;101598.09;;;30.68;44.51
37202;BME280;37799;52.390;6.136;2023-06-26T10:19:07;101593.28;;;30.71;44.87
37202;BME280;37799;52.390;6.136;2023-06-26T10:21:44;101588.72;;;30.36;40.53
37202;BME280;37799;52.390;6.136;2023-06-26T10:24:12;101609.13;;;29.63;39.46
37202;BME280;37799;52.390;6.136;2023-06-26T10:26:57;101610.44;;;29.49;42.89
37202;BME280;37799;52.390;6.136;2023-06-26T10:29:25;101619.13;;;29.51;43.08
37202;BME280;37799;52.390;6.136;2023-06-26T10:31:55;101616.66;;;29.77;43.23
37202;BME280;37799;52.390;6.136;2023-06-26T10:34:29;101627.41;;;30.32;42.37
37202;BME280;37799;52.390;6.136;2023-06-26T10:37:16;101620.47;;;30.39;39.71
37202;BME280;37799;52.390;6.136;2023-06-26T10:39:52;101628.88;;;30.44;39.75
37202;BME280;37799;52.390;6.136;2023-06-26T10:42:35;101636.25;;;30.33;40.60
37202;BME280;37799;52.390;6.136;2023-06-26T10:48:28;101644.84;;;30.36;35.12
37202;BME280;37799;52.390;6.136;2023-06-26T10:50:56;101641.03;;;30.39;37.75
37202;BME280;37799;52.390;6.136;2023-06-26T10:53:25;101654.44;;;30.29;39.24
37202;BME280;37799;52.390;6.136;2023-06-26T10:56:05;101651.97;;;29.42;39.52
37202;BME280;37799;52.390;6.136;2023-06-26T11:03:43;101638.44;;;30.47;39.12
37202;BME280;37799;52.390;6.136;2023-06-26T11:06:14;101647.22;;;30.57;37.14
37202;BME280;37799;52.390;6.136;2023-06-26T11:08:50;101652.09;;;30.44;38.04
37202;BME280;37799;52.390;6.136;2023-06-26T11:11:16;101652.56;;;30.39;38.47
37202;BME280;37799;52.390;6.136;2023-06-26T11:13:42;101657.28;;;30.18;38.94
37202;BME280;37799;52.390;6.136;2023-06-26T11:16:11;101666.59;;;30.41;36.00
37202;BME280;37799;52.390;6.136;2023-06-26T11:18:37;101663.97;;;30.87;36.42
37202;BME280;37799;52.390;6.136;2023-06-26T11:21:09;101652.97;;;31.25;35.54
37202;BME280;37799;52.390;6.136;2023-06-26T11:23:36;101667.47;;;30.87;36.85
37202;BME280;37799;52.390;6.136;2023-06-26T11:26:16;101668.50;;;29.84;36.55
37202;BME280;37799;52.390;6.136;2023-06-26T11:28:54;101680.78;;;30.05;36.73
37202;BME280;37799;52.390;6.136;2023-06-26T11:31:30;101677.41;;;29.36;38.87
37202;BME280;37799;52.390;6.136;2023-06-26T11:33:56;101688.19;;;30.20;39.29
37202;BME280;37799;52.390;6.136;2023-06-26T11:36:23;101690.69;;;30.59;36.34
37202;BME280;37799;52.390;6.136;2023-06-26T11:38:57;101684.38;;;30.88;37.91
37202;BME280;37799;52.390;6.136;2023-06-26T11:41:24;101690.09;;;31.46;36.96
37202;BME280;37799;52.390;6.136;2023-06-26T11:43:51;101687.97;;;31.14;35.03
37202;BME280;37799;52.390;6.136;2023-06-26T11:46:17;101701.66;;;31.29;38.32
37202;BME280;37799;52.390;6.136;2023-06-26T11:48:43;101693.72;;;31.81;33.93
37202;BME280;37799;52.390;6.136;2023-06-26T11:51:09;101700.25;;;31.78;33.66
37202;BME280;37799;52.390;6.136;2023-06-26T11:53:46;101702.16;;;31.50;34.82
37202;BME280;37799;52.390;6.136;2023-06-26T11:56:17;101710.09;;;31.60;35.04
37202;BME280;37799;52.390;6.136;2023-06-26T12:01:44;101723.81;;;30.11;35.92
37202;BME280;37799;52.390;6.136;2023-06-26T12:04:11;101717.56;;;29.74;35.97
37202;BME280;37799;52.390;6.136;2023-06-26T12:06:42;101716.22;;;30.16;36.90
37202;BME280;37799;52.390;6.136;2023-06-26T12:09:09;101728.25;;;30.30;37.43
37202;BME280;37799;52.390;6.136;2023-06-26T12:11:41;101735.91;;;30.80;36.12
37202;BME280;37799;52.390;6.136;2023-06-26T12:14:07;101739.63;;;31.15;34.15
37202;BME280;37799;52.390;6.136;2023-06-26T12:16:35;101733.53;;;31.22;36.27
37202;BME280;37799;52.390;6.136;2023-06-26T12:19:05;101742.16;;;30.71;35.92
37202;BME280;37799;52.390;6.136;2023-06-26T12:24:04;101739.47;;;30.71;35.87
37202;BME280;37799;52.390;6.136;2023-06-26T12:26:30;101745.16;;;31.31;35.04
37202;BME280;37799;52.390;6.136;2023-06-26T12:29:22;101745.84;;;31.33;34.52
37202;BME280;37799;52.390;6.136;2023-06-26T12:31:54;101757.91;;;31.01;31.78
37202;BME280;37799;52.390;6.136;2023-06-26T12:34:31;101753.78;;;31.25;31.95
37202;BME280;37799;52.390;6.136;2023-06-26T12:37:11;101757.75;;;31.03;32.52
37202;BME280;37799;52.390;6.136;2023-06-26T12:39:54;101757.06;;;31.01;32.77
37202;BME280;37799;52.390;6.136;2023-06-26T12:42:23;101765.31;;;30.80;31.29
37202;BME280;37799;52.390;6.136;2023-06-26T12:44:50;101768.88;;;30.34;32.62
37202;BME280;37799;52.390;6.136;2023-06-26T12:47:17;101766.81;;;29.12;34.67
37202;BME280;37799;52.390;6.136;2023-06-26T12:49:44;101753.50;;;28.71;36.08
37202;BME280;37799;52.390;6.136;2023-06-26T12:52:12;101757.31;;;28.78;36.39
37202;BME280;37799;52.390;6.136;2023-06-26T12:54:39;101740.97;;;29.12;33.64
37202;BME280;37799;52.390;6.136;2023-06-26T12:57:07;101761.53;;;29.60;35.57
37202;BME280;37799;52.390;6.136;2023-06-26T12:59:36;101757.56;;;29.25;33.63
37202;BME280;37799;52.390;6.136;2023-06-26T13:02:01;101760.09;;;29.36;32.66
37202;BME280;37799;52.390;6.136;2023-06-26T13:04:28;101765.44;;;29.36;33.08
37202;BME280;37799;52.390;6.136;2023-06-26T13:06:54;101761.50;;;29.21;34.66
37202;BME280;37799;52.390;6.136;2023-06-26T13:09:22;101764.88;;;29.43;36.10
37202;BME280;37799;52.390;6.136;2023-06-26T13:11:47;101771.63;;;29.95;33.94
37202;BME280;37799;52.390;6.136;2023-06-26T13:14:12;101779.88;;;30.68;35.17
37202;BME280;37799;52.390;6.136;2023-06-26T13:16:39;101768.69;;;29.88;36.11
37202;BME280;37799;52.390;6.136;2023-06-26T13:19:04;101773.28;;;29.38;36.39